Danforth, South Dakota
Current Conditions -  °F | °C
As of 10:55 AM on Sunday 23 Nov 2014 (Local Time) from KHON Reporting Station
Clear Clear  
Wind Chill: 30°   Ceiling: Unl
Heat Index: 40°   Visibility: 10mi
Dew Point: 32°   Wind: 21mph
Humidity: 73%   Direction: 290°WNW
Pressure: 29.58"   Gusts: NA
Location:  44.3714°N, 98.681°W
Report Text: KHON 231655Z AUTO 29018KT 10SM CLR 04/00 A2958 RMK AO2 SLP027 T00440000
Loading
Personal Weather Stations






























Interactive Weather Map New forecast layout! Learn more

10-Day Weather Forecast

Advertisements
Track Severe Weather on mobile